createdAt,value
2018-09-16T00:02:45.680Z,102155.52
2018-09-16T00:05:49.918Z,102162.31
2018-09-16T00:08:54.108Z,102165.22
2018-09-16T00:11:58.338Z,102161.84
2018-09-16T00:15:02.541Z,102159.97
2018-09-16T00:18:06.745Z,102153.38
2018-09-16T00:21:10.965Z,102153.21
2018-09-16T00:24:15.172Z,102147.65
2018-09-16T00:27:19.397Z,102152.06
2018-09-16T00:30:23.576Z,102158.92
2018-09-16T00:33:27.788Z,102158.56
2018-09-16T00:36:31.984Z,102160.30
2018-09-16T00:39:36.220Z,102159.31
2018-09-16T00:42:40.404Z,102160.01
2018-09-16T00:45:44.604Z,102150.19
2018-09-16T00:48:48.820Z,102140.81
2018-09-16T00:51:53.049Z,102150.48
2018-09-16T00:54:57.228Z,102145.87
2018-09-16T00:58:01.453Z,102138.27
2018-09-16T01:01:05.660Z,102139.27
2018-09-16T01:04:10.692Z,102139.62
2018-09-16T01:07:14.872Z,102140.97
2018-09-16T01:10:19.061Z,102135.86
2018-09-16T01:13:23.305Z,102131.98
2018-09-16T01:16:27.534Z,102135.06
2018-09-16T01:19:31.726Z,102125.44
2018-09-16T01:22:36.044Z,102128.34
2018-09-16T01:25:40.313Z,102124.27
2018-09-16T01:28:44.501Z,102133.77
2018-09-16T01:31:48.705Z,102135.50
2018-09-16T01:34:52.924Z,102124.83
2018-09-16T01:38:02.322Z,102126.50
2018-09-16T01:41:06.651Z,102124.10
2018-09-16T01:44:10.853Z,102127.16
2018-09-16T01:47:15.081Z,102118.86
2018-09-16T01:50:19.312Z,102114.47
2018-09-16T01:53:23.516Z,102115.52
2018-09-16T01:56:27.745Z,102111.59
2018-09-16T01:59:31.973Z,102111.97
2018-09-16T02:02:36.197Z,102106.47
2018-09-16T02:05:45.612Z,102102.77
2018-09-16T02:08:49.833Z,102099.70
2018-09-16T02:11:54.041Z,102095.45
2018-09-16T02:14:58.609Z,102098.16
2018-09-16T02:18:02.812Z,102103.27
2018-09-16T02:21:07.156Z,102095.32
2018-09-16T02:24:11.343Z,102095.51
2018-09-16T02:27:15.585Z,102092.44
2018-09-16T02:30:19.780Z,102098.24
2018-09-16T02:33:24.013Z,102095.16
2018-09-16T02:36:28.217Z,102091.27
2018-09-16T02:39:32.430Z,102088.43
2018-09-16T02:42:36.648Z,102091.33
2018-09-16T02:45:40.847Z,102093.73
2018-09-16T02:48:45.064Z,102095.59
2018-09-16T02:51:49.258Z,102093.73
2018-09-16T02:54:53.478Z,102089.30
2018-09-16T02:57:57.678Z,102085.05
2018-09-16T03:01:01.892Z,102088.80
2018-09-16T03:04:06.078Z,102081.96
2018-09-16T03:07:10.324Z,102091.94
2018-09-16T03:10:14.525Z,102083.98
2018-09-16T03:13:18.740Z,102085.16
2018-09-16T03:16:22.975Z,102079.73
2018-09-16T03:19:27.213Z,102082.95
2018-09-16T03:22:31.404Z,102075.18
2018-09-16T03:25:35.614Z,102073.82
2018-09-16T03:28:39.825Z,102073.50
2018-09-16T03:31:44.029Z,102074.55
2018-09-16T03:34:48.224Z,102078.61
2018-09-16T03:37:52.440Z,102086.09
2018-09-16T03:40:56.632Z,102075.55
2018-09-16T03:44:00.841Z,102074.55
2018-09-16T03:47:05.045Z,102077.70
2018-09-16T03:50:09.249Z,102073.45
2018-09-16T03:53:13.460Z,102075.53
2018-09-16T03:56:17.689Z,102077.52
2018-09-16T03:59:21.893Z,102078.69
2018-09-16T04:02:26.092Z,102077.52
2018-09-16T04:05:30.312Z,102078.38
2018-09-16T04:08:34.545Z,102073.80
2018-09-16T04:11:38.905Z,102078.69
2018-09-16T04:14:43.212Z,102076.33
2018-09-16T04:17:47.385Z,102075.63
2018-09-16T04:20:51.779Z,102073.73
2018-09-16T04:23:55.988Z,102068.78
2018-09-16T04:27:00.200Z,102079.27
2018-09-16T04:30:04.475Z,102077.53
2018-09-16T04:33:08.697Z,102078.52
2018-09-16T04:36:12.976Z,102076.47
2018-09-16T04:39:17.217Z,102082.75
2018-09-16T04:42:21.409Z,102086.83
2018-09-16T04:45:25.617Z,102088.17
2018-09-16T04:48:29.817Z,102091.69
2018-09-16T04:51:34.008Z,102084.84
2018-09-16T04:54:38.219Z,102082.59
2018-09-16T04:57:42.414Z,102077.83
2018-09-16T05:00:47.509Z,102079.44
2018-09-16T05:03:51.725Z,102086.20
2018-09-16T05:06:55.944Z,102087.52
2018-09-16T05:10:00.142Z,102076.75
2018-09-16T05:13:04.364Z,102086.47
2018-09-16T05:16:08.569Z,102078.34
2018-09-16T05:19:12.773Z,102074.50
2018-09-16T05:22:16.986Z,102077.23
2018-09-16T05:25:21.212Z,102079.83
2018-09-16T05:28:25.416Z,102071.88
2018-09-16T05:31:29.696Z,102080.41
2018-09-16T05:34:33.861Z,102081.50
2018-09-16T05:37:38.069Z,102078.34
2018-09-16T05:40:42.302Z,102080.48
2018-09-16T05:43:46.486Z,102085.84
2018-09-16T05:46:50.708Z,102080.34
2018-09-16T05:49:54.949Z,102079.17
2018-09-16T05:52:59.337Z,102076.91
2018-09-16T05:56:03.413Z,102065.43
2018-09-16T05:59:07.642Z,102071.13
2018-09-16T06:02:11.857Z,102082.50
2018-09-16T06:05:16.097Z,102084.77
2018-09-16T06:08:20.296Z,102078.22
2018-09-16T06:11:24.514Z,102076.97
2018-09-16T06:14:28.719Z,102076.37
2018-09-16T06:17:32.941Z,102069.67
2018-09-16T06:20:37.153Z,102075.20
2018-09-16T06:23:41.397Z,102074.20
2018-09-16T06:26:45.604Z,102082.41
2018-09-16T06:29:49.809Z,102082.46
2018-09-16T06:32:54.006Z,102076.61
2018-09-16T06:35:58.209Z,102078.02
2018-09-16T06:39:02.424Z,102080.23
2018-09-16T06:42:06.665Z,102079.62
2018-09-16T06:45:10.868Z,102070.70
2018-09-16T06:48:15.105Z,102067.06
2018-09-16T06:51:19.840Z,102067.20
2018-09-16T06:54:24.061Z,102070.88
2018-09-16T06:57:28.253Z,102061.92
2018-09-16T07:00:32.497Z,102066.76
2018-09-16T07:03:36.697Z,102065.59
2018-09-16T07:06:40.940Z,102063.03
2018-09-16T07:09:45.141Z,102061.80
2018-09-16T07:12:49.357Z,102057.39
2018-09-16T07:15:53.577Z,102062.45
2018-09-16T07:18:57.887Z,102064.27
2018-09-16T07:22:02.061Z,102054.41
2018-09-16T07:25:07.042Z,102057.14
2018-09-16T07:28:11.269Z,102057.36
2018-09-16T07:31:15.470Z,102057.59
2018-09-16T07:34:19.721Z,102066.55
2018-09-16T07:37:23.920Z,102059.10
2018-09-16T07:40:28.141Z,102056.56
2018-09-16T07:43:32.328Z,102057.30
2018-09-16T07:46:36.570Z,102050.78
2018-09-16T07:49:40.865Z,102055.00
2018-09-16T07:52:45.118Z,102054.15
2018-09-16T07:55:49.318Z,102054.95
2018-09-16T07:58:53.644Z,102059.86
2018-09-16T08:01:57.848Z,102056.47
2018-09-16T08:05:02.068Z,102050.86
2018-09-16T08:08:06.315Z,102052.19
2018-09-16T08:11:10.537Z,102052.61
2018-09-16T08:14:14.748Z,102050.97
2018-09-16T08:17:18.972Z,102042.00
2018-09-16T08:20:23.197Z,102042.78
2018-09-16T08:23:27.471Z,102044.72
2018-09-16T08:26:31.718Z,102039.33
2018-09-16T08:29:35.909Z,102036.02
2018-09-16T08:32:40.137Z,102032.13
2018-09-16T08:35:44.437Z,102032.66
2018-09-16T08:38:48.662Z,102029.86
2018-09-16T08:41:52.888Z,102031.33
2018-09-16T08:44:57.105Z,102028.27
2018-09-16T08:48:01.316Z,102029.03
2018-09-16T08:51:06.177Z,102022.45
2018-09-16T08:54:10.625Z,102020.29
2018-09-16T08:57:14.832Z,102021.55
2018-09-16T09:00:19.025Z,102016.80
2018-09-16T09:03:23.260Z,102022.06
2018-09-16T09:06:27.488Z,102019.41
2018-09-16T09:09:31.695Z,102010.99
2018-09-16T09:12:35.909Z,102022.41
2018-09-16T09:15:40.163Z,102016.06
2018-09-16T09:18:44.348Z,102021.83
2018-09-16T09:21:48.564Z,102015.77
2018-09-16T09:24:52.756Z,102014.39
2018-09-16T09:27:56.956Z,102016.21
2018-09-16T09:31:01.157Z,102005.73
2018-09-16T09:34:06.229Z,102003.08
2018-09-16T09:37:10.408Z,102000.38
2018-09-16T09:40:14.608Z,102003.25
2018-09-16T09:43:18.816Z,101997.34
2018-09-16T09:46:23.016Z,101988.53
2018-09-16T09:49:27.215Z,101989.30
2018-09-16T09:52:32.634Z,101988.81
2018-09-16T09:55:36.825Z,101988.64
2018-09-16T09:58:41.761Z,101983.42
2018-09-16T10:01:45.969Z,101982.69
2018-09-16T10:04:50.200Z,101988.55
2018-09-16T10:07:54.413Z,101983.41
2018-09-16T10:10:58.617Z,101978.58
2018-09-16T10:14:02.804Z,101973.19
2018-09-16T10:17:07.157Z,101968.11
2018-09-16T10:20:11.361Z,101962.97
2018-09-16T10:23:15.582Z,101955.09
2018-09-16T10:26:20.788Z,101946.30
2018-09-16T10:29:25.029Z,101958.66
2018-09-16T10:32:29.225Z,101958.06
2018-09-16T10:35:33.444Z,101952.20
2018-09-16T10:38:37.715Z,101945.67
2018-09-16T10:41:41.892Z,101946.91
2018-09-16T10:44:46.084Z,101943.79
2018-09-16T10:47:50.335Z,101945.55
2018-09-16T10:50:54.560Z,101941.73
2018-09-16T10:53:58.768Z,101944.55
2018-09-16T10:57:03.004Z,101940.05
2018-09-16T11:00:07.221Z,101938.36
2018-09-16T11:03:11.457Z,101924.20
2018-09-16T11:06:15.648Z,101934.09
2018-09-16T11:09:19.860Z,101931.66
2018-09-16T11:12:24.068Z,101934.95
2018-09-16T11:15:28.309Z,101919.64
2018-09-16T11:18:32.540Z,101912.17
2018-09-16T11:21:36.734Z,101909.13
2018-09-16T11:24:41.002Z,101911.20
2018-09-16T11:27:45.229Z,101902.59
2018-09-16T11:30:49.465Z,101897.65
2018-09-16T11:33:53.685Z,101896.36
2018-09-16T11:36:57.957Z,101884.31
2018-09-16T11:40:02.221Z,101875.38
2018-09-16T11:43:06.482Z,101875.41
2018-09-16T11:46:10.707Z,101878.25
2018-09-16T11:49:14.941Z,101873.08
2018-09-16T11:52:19.321Z,101870.59
2018-09-16T11:55:23.588Z,101866.48
2018-09-16T11:58:27.776Z,101869.84
2018-09-16T12:01:31.994Z,101863.03
2018-09-16T12:04:36.180Z,101864.17
2018-09-16T12:07:40.401Z,101856.93
2018-09-16T12:10:44.617Z,101857.59
2018-09-16T12:13:48.852Z,101859.14
2018-09-16T12:16:53.065Z,101856.97
2018-09-16T12:19:57.292Z,101847.06
2018-09-16T12:23:01.484Z,101843.59
2018-09-16T12:26:05.692Z,101837.64
2018-09-16T12:29:09.897Z,101835.55
2018-09-16T12:32:15.108Z,101826.18
2018-09-16T12:35:19.325Z,101834.78
2018-09-16T12:38:23.596Z,101831.02
2018-09-16T12:41:27.792Z,101826.30
2018-09-16T12:44:32.018Z,101826.24
2018-09-16T12:47:36.197Z,101825.72
2018-09-16T12:50:40.412Z,101819.22
2018-09-16T12:53:44.620Z,101806.25
2018-09-16T12:56:48.876Z,101808.83
2018-09-16T12:59:53.389Z,101813.50
2018-09-16T13:02:57.584Z,101815.14
2018-09-16T13:06:01.834Z,101809.34
2018-09-16T13:09:10.123Z,101821.03
2018-09-16T13:12:14.337Z,101799.50
2018-09-16T13:15:18.535Z,101792.14
2018-09-16T13:18:22.749Z,101797.39
2018-09-16T13:21:26.937Z,101793.73
2018-09-16T13:24:31.153Z,101785.50
2018-09-16T13:27:35.372Z,101779.08
2018-09-16T13:30:39.597Z,101782.23
2018-09-16T13:33:43.795Z,101771.30
2018-09-16T13:36:48.820Z,101768.22
2018-09-16T13:39:53.037Z,101773.27
2018-09-16T13:42:57.232Z,101775.77
2018-09-16T13:46:01.423Z,101788.91
2018-09-16T13:49:06.172Z,101763.95
2018-09-16T13:52:10.369Z,101758.64
2018-09-16T13:55:14.556Z,101762.58
2018-09-16T13:58:18.745Z,101760.72
2018-09-16T14:01:22.928Z,101750.59
2018-09-16T14:04:27.117Z,101751.34
2018-09-16T14:07:31.378Z,101748.20
2018-09-16T14:10:35.561Z,101741.29
2018-09-16T14:13:39.760Z,101749.19
2018-09-16T14:16:43.944Z,101753.27
2018-09-16T14:19:48.161Z,101756.61
2018-09-16T14:22:52.348Z,101748.58
2018-09-16T14:25:56.556Z,101745.24
2018-09-16T14:29:00.770Z,101766.51
2018-09-16T14:32:04.988Z,101747.09
2018-09-16T14:35:09.188Z,101761.41
2018-09-16T14:38:13.389Z,101766.26
2018-09-16T14:41:17.577Z,101757.05
2018-09-16T14:44:21.817Z,101749.80
2018-09-16T14:47:26.005Z,101751.87
2018-09-16T14:50:30.191Z,101747.39
2018-09-16T14:53:34.378Z,101743.19
2018-09-16T14:56:38.643Z,101744.80
2018-09-16T14:59:43.285Z,101734.55
2018-09-16T15:02:47.535Z,101736.44
2018-09-16T15:05:51.748Z,101723.70
2018-09-16T15:08:56.012Z,101725.08
2018-09-16T15:12:00.273Z,101717.06
2018-09-16T15:15:04.720Z,101717.87
2018-09-16T15:18:09.241Z,101712.09
2018-09-16T15:21:13.641Z,101704.09
2018-09-16T15:24:17.864Z,101702.70
2018-09-16T15:27:22.098Z,101701.61
2018-09-16T15:30:26.319Z,101697.20
2018-09-16T15:33:30.542Z,101703.55
2018-09-16T15:36:34.809Z,101696.89
2018-09-16T15:39:38.987Z,101693.06
2018-09-16T15:42:43.236Z,101702.21
2018-09-16T15:45:47.380Z,101703.06
2018-09-16T15:48:51.596Z,101696.45
2018-09-16T15:51:55.790Z,101696.69
2018-09-16T15:55:00.052Z,101693.60
2018-09-16T15:58:04.208Z,101689.47
2018-09-16T16:01:08.417Z,101694.45
2018-09-16T16:04:12.638Z,101693.06
2018-09-16T16:07:16.852Z,101692.76
2018-09-16T16:10:21.084Z,101695.82
2018-09-16T16:13:25.304Z,101688.33
2018-09-16T16:16:29.608Z,101691.59
2018-09-16T16:19:33.821Z,101685.58
2018-09-16T16:22:38.074Z,101691.02
2018-09-16T16:25:42.266Z,101695.94
2018-09-16T16:28:46.488Z,101698.13
2018-09-16T16:31:50.665Z,101698.13
2018-09-16T16:34:54.926Z,101698.59
2018-09-16T16:37:59.126Z,101700.73
2018-09-16T16:41:03.342Z,101698.95
2018-09-16T16:44:07.545Z,101699.46
2018-09-16T16:47:11.775Z,101696.09
2018-09-16T16:50:15.978Z,101705.12
2018-09-16T16:53:20.195Z,101708.63
2018-09-16T16:56:24.404Z,101701.87
2018-09-16T16:59:28.613Z,101709.17
2018-09-16T17:02:32.821Z,101707.67
2018-09-16T17:05:37.038Z,101706.69
2018-09-16T17:08:41.741Z,101706.26
2018-09-16T17:11:45.948Z,101703.64
2018-09-16T17:14:50.154Z,101699.67
2018-09-16T17:17:54.377Z,101703.67
2018-09-16T17:20:58.565Z,101705.45
2018-09-16T17:24:02.782Z,101705.31
2018-09-16T17:27:07.068Z,101705.53
2018-09-16T17:30:11.299Z,101699.62
2018-09-16T17:33:15.500Z,101703.64
2018-09-16T17:36:19.741Z,101704.07
2018-09-16T17:39:23.917Z,101698.72
2018-09-16T17:42:28.121Z,101693.43
2018-09-16T17:45:32.316Z,101700.83
2018-09-16T17:48:36.530Z,101696.39
2018-09-16T17:51:40.725Z,101700.16
2018-09-16T17:54:45.325Z,101691.59
2018-09-16T17:57:49.540Z,101687.94
2018-09-16T18:00:53.765Z,101691.14
2018-09-16T18:03:57.972Z,101693.04
2018-09-16T18:07:02.223Z,101699.91
2018-09-16T18:10:06.420Z,101704.80
2018-09-16T18:13:11.426Z,101710.29
2018-09-16T18:16:15.665Z,101708.28
2018-09-16T18:19:19.889Z,101715.74
2018-09-16T18:22:24.060Z,101705.78
2018-09-16T18:25:28.245Z,101705.66
2018-09-16T18:28:32.473Z,101703.41
2018-09-16T18:31:36.665Z,101699.25
2018-09-16T18:34:40.989Z,101689.53
2018-09-16T18:37:45.168Z,101687.80
2018-09-16T18:40:49.408Z,101690.78
2018-09-16T18:43:53.753Z,101687.68
2018-09-16T18:46:57.980Z,101689.30
2018-09-16T18:50:02.156Z,101687.64
2018-09-16T18:53:06.381Z,101694.22
2018-09-16T18:56:10.577Z,101692.53
2018-09-16T18:59:14.778Z,101693.26
2018-09-16T19:02:18.974Z,101692.45
2018-09-16T19:05:23.212Z,101693.74
2018-09-16T19:08:31.529Z,101690.39
2018-09-16T19:11:35.953Z,101688.70
2018-09-16T19:14:40.195Z,101690.55
2018-09-16T19:17:44.489Z,101678.13
2018-09-16T19:20:48.739Z,101673.97
2018-09-16T19:23:53.012Z,101673.08
2018-09-16T19:26:57.267Z,101664.53
2018-09-16T19:30:01.518Z,101669.09
2018-09-16T19:33:05.743Z,101673.53
2018-09-16T19:36:09.944Z,101673.77
2018-09-16T19:39:14.178Z,101678.46
2018-09-16T19:42:18.374Z,101679.34
2018-09-16T19:45:22.592Z,101673.36
2018-09-16T19:48:26.789Z,101674.09
2018-09-16T19:51:30.998Z,101676.19
2018-09-16T19:54:35.176Z,101677.80
2018-09-16T19:57:39.361Z,101675.30
2018-09-16T20:00:43.620Z,101674.59
2018-09-16T20:03:47.837Z,101678.46
2018-09-16T20:06:52.052Z,101678.81
2018-09-16T20:09:56.263Z,101673.53
2018-09-16T20:13:00.452Z,101673.53
2018-09-16T20:16:04.653Z,101670.71
2018-09-16T20:19:09.199Z,101666.31
2018-09-16T20:22:13.392Z,101655.34
2018-09-16T20:25:17.624Z,101661.95
2018-09-16T20:28:21.820Z,101661.67
2018-09-16T20:31:26.065Z,101662.72
2018-09-16T20:34:30.290Z,101656.06
2018-09-16T20:37:34.529Z,101653.32
2018-09-16T20:40:38.725Z,101649.85
2018-09-16T20:43:43.018Z,101650.00
2018-09-16T20:46:47.235Z,101646.53
2018-09-16T20:49:51.476Z,101647.98
2018-09-16T20:52:55.676Z,101645.36
2018-09-16T20:55:59.904Z,101650.91
2018-09-16T20:59:04.116Z,101650.46
2018-09-16T21:02:08.496Z,101648.16
2018-09-16T21:05:12.709Z,101650.47
2018-09-16T21:08:17.025Z,101655.48
2018-09-16T21:11:21.600Z,101652.61
2018-09-16T21:14:25.847Z,101646.28
2018-09-16T21:17:30.037Z,101647.23
2018-09-16T21:20:34.244Z,101646.23
2018-09-16T21:23:38.457Z,101651.48
2018-09-16T21:26:42.676Z,101640.75
2018-09-16T21:29:46.876Z,101645.76
2018-09-16T21:32:51.081Z,101644.80
2018-09-16T21:35:55.288Z,101641.53
2018-09-16T21:38:59.521Z,101640.03
2018-09-16T21:42:03.738Z,101635.32
2018-09-16T21:45:07.933Z,101633.42
2018-09-16T21:48:12.117Z,101628.70
2018-09-16T21:51:16.364Z,101621.91
2018-09-16T21:54:20.569Z,101626.50
2018-09-16T21:57:24.825Z,101631.98
2018-09-16T22:00:28.976Z,101623.63
2018-09-16T22:03:33.180Z,101625.70
2018-09-16T22:06:37.377Z,101629.01
2018-09-16T22:09:41.585Z,101622.97
2018-09-16T22:12:45.785Z,101617.12
2018-09-16T22:15:50.002Z,101622.39
2018-09-16T22:18:54.219Z,101624.52
2018-09-16T22:21:58.441Z,101624.77
2018-09-16T22:25:02.623Z,101626.60
2018-09-16T22:28:07.513Z,101617.48
2018-09-16T22:31:11.755Z,101620.52
2018-09-16T22:34:15.982Z,101613.06
2018-09-16T22:37:20.193Z,101620.14
2018-09-16T22:40:24.419Z,101616.36
2018-09-16T22:43:28.632Z,101613.91
2018-09-16T22:46:32.852Z,101616.36
2018-09-16T22:49:37.071Z,101603.14
2018-09-16T22:52:41.280Z,101606.40
2018-09-16T22:55:45.491Z,101603.08
2018-09-16T22:58:49.681Z,101597.00
2018-09-16T23:01:53.892Z,101599.21
2018-09-16T23:04:58.101Z,101589.86
2018-09-16T23:08:02.296Z,101590.52
2018-09-16T23:11:06.503Z,101588.15
2018-09-16T23:14:10.745Z,101594.15
2018-09-16T23:17:14.960Z,101595.52
2018-09-16T23:20:19.152Z,101586.41
2018-09-16T23:23:23.331Z,101587.70
2018-09-16T23:26:27.541Z,101590.38
2018-09-16T23:29:31.744Z,101598.31
2018-09-16T23:32:35.956Z,101589.44
2018-09-16T23:35:40.150Z,101588.75
2018-09-16T23:38:44.695Z,101581.16
2018-09-16T23:41:48.905Z,101583.77
2018-09-16T23:44:53.118Z,101580.88
2018-09-16T23:47:57.324Z,101577.48
2018-09-16T23:51:01.549Z,101576.35
2018-09-16T23:54:05.741Z,101568.00
2018-09-16T23:57:09.961Z,101566.52
